createdAt,value
2019-02-15T00:00:13.015Z,72.71
2019-02-15T00:01:12.967Z,73.22
2019-02-15T00:02:12.975Z,74.26
2019-02-15T00:03:12.959Z,74.05
2019-02-15T00:04:12.945Z,73.94
2019-02-15T00:05:12.930Z,73.84
2019-02-15T00:06:12.917Z,73.67
2019-02-15T00:07:12.955Z,73.53
2019-02-15T00:08:12.898Z,74.08
2019-02-15T00:09:12.882Z,73.67
2019-02-15T00:10:12.887Z,73.98
2019-02-15T00:11:12.875Z,73.63
2019-02-15T00:12:12.866Z,73.36
2019-02-15T00:13:13.802Z,73.57
2019-02-15T00:14:12.829Z,73.77
2019-02-15T00:15:12.827Z,74.26
2019-02-15T00:16:12.813Z,73.05
2019-02-15T00:17:12.795Z,73.43
2019-02-15T00:18:12.806Z,73.36
2019-02-15T00:19:12.781Z,73.98
2019-02-15T00:20:12.767Z,73.46
2019-02-15T00:21:12.756Z,73.05
2019-02-15T00:22:12.753Z,73.36
2019-02-15T00:23:12.766Z,73.77
2019-02-15T00:24:12.755Z,74.19
2019-02-15T00:25:12.723Z,73.46
2019-02-15T00:26:12.707Z,73.46
2019-02-15T00:27:12.697Z,73.36
2019-02-15T00:28:12.733Z,72.94
2019-02-15T00:29:12.669Z,72.94
2019-02-15T00:30:12.661Z,73.15
2019-02-15T00:31:12.650Z,73.36
2019-02-15T00:32:12.647Z,73.05
2019-02-15T00:33:12.655Z,73.25
2019-02-15T00:34:12.632Z,73.25
2019-02-15T00:35:12.609Z,73.25
2019-02-15T00:36:12.593Z,73.36
2019-02-15T00:37:12.591Z,73.46
2019-02-15T00:38:12.607Z,74.08
2019-02-15T00:39:12.571Z,73.77
2019-02-15T00:40:12.560Z,73.60
2019-02-15T00:41:12.571Z,73.39
2019-02-15T00:42:12.549Z,73.70
2019-02-15T00:43:12.539Z,74.22
2019-02-15T00:44:12.521Z,74.01
2019-02-15T00:45:12.513Z,73.91
2019-02-15T00:46:12.489Z,73.91
2019-02-15T00:47:12.487Z,74.53
2019-02-15T00:48:12.495Z,73.84
2019-02-15T00:49:12.466Z,74.63
2019-02-15T00:50:12.446Z,74.43
2019-02-15T00:51:12.438Z,74.74
2019-02-15T00:52:12.421Z,74.57
2019-02-15T00:53:12.461Z,74.46
2019-02-15T00:54:12.413Z,74.57
2019-02-15T00:55:12.513Z,75.09
2019-02-15T00:56:12.387Z,75.09
2019-02-15T00:57:12.386Z,74.57
2019-02-15T00:58:12.386Z,74.67
2019-02-15T00:59:12.363Z,74.46
2019-02-15T01:00:12.357Z,74.67
2019-02-15T01:01:12.356Z,74.57
2019-02-15T01:02:12.344Z,74.67
2019-02-15T01:03:12.375Z,74.57
2019-02-15T01:04:12.326Z,74.77
2019-02-15T01:05:12.300Z,75.29
2019-02-15T01:06:12.284Z,74.26
2019-02-15T01:07:12.267Z,74.36
2019-02-15T01:08:12.275Z,75.19
2019-02-15T01:09:12.245Z,74.98
2019-02-15T01:10:12.256Z,74.88
2019-02-15T01:11:12.261Z,75.23
2019-02-15T01:12:12.221Z,75.64
2019-02-15T01:13:12.305Z,75.54
2019-02-15T01:14:12.211Z,75.95
2019-02-15T01:15:12.226Z,75.95
2019-02-15T01:16:12.219Z,75.23
2019-02-15T01:17:12.215Z,75.02
2019-02-15T01:18:12.185Z,75.02
2019-02-15T01:19:12.156Z,75.33
2019-02-15T01:20:12.157Z,75.43
2019-02-15T01:21:12.166Z,74.91
2019-02-15T01:22:12.135Z,75.12
2019-02-15T01:23:12.148Z,75.23
2019-02-15T01:24:12.141Z,75.12
2019-02-15T01:25:12.093Z,75.02
2019-02-15T01:26:12.100Z,75.54
2019-02-15T01:27:12.087Z,75.43
2019-02-15T01:28:12.087Z,74.60
2019-02-15T01:29:12.071Z,74.19
2019-02-15T01:30:12.032Z,74.40
2019-02-15T01:31:12.121Z,73.77
2019-02-15T01:32:12.039Z,74.29
2019-02-15T01:33:12.059Z,73.63
2019-02-15T01:34:12.016Z,73.63
2019-02-15T01:35:12.001Z,74.36
2019-02-15T01:36:12.016Z,73.84
2019-02-15T01:37:11.965Z,74.36
2019-02-15T01:38:11.966Z,73.74
2019-02-15T01:39:11.971Z,74.05
2019-02-15T01:40:11.973Z,74.26
2019-02-15T01:41:11.941Z,74.36
2019-02-15T01:42:11.896Z,73.94
2019-02-15T01:43:11.940Z,73.53
2019-02-15T01:44:11.944Z,73.01
2019-02-15T01:45:11.881Z,74.08
2019-02-15T01:46:11.863Z,74.36
2019-02-15T01:47:11.863Z,74.29
2019-02-15T01:48:11.845Z,74.71
2019-02-15T01:49:11.845Z,75.02
2019-02-15T01:50:11.910Z,74.71
2019-02-15T01:51:11.817Z,74.60
2019-02-15T01:52:11.838Z,75.43
2019-02-15T01:53:11.815Z,74.91
2019-02-15T01:54:11.807Z,74.95
2019-02-15T01:55:11.786Z,74.71
2019-02-15T01:56:11.755Z,75.57
2019-02-15T01:57:11.761Z,75.54
2019-02-15T01:58:11.757Z,74.91
2019-02-15T01:59:11.757Z,75.12
2019-02-15T02:00:11.728Z,75.43
2019-02-15T02:01:11.712Z,75.88
2019-02-15T02:02:11.685Z,75.78
2019-02-15T02:03:11.677Z,75.74
2019-02-15T02:04:11.696Z,75.88
2019-02-15T02:05:11.686Z,75.88
2019-02-15T02:06:11.654Z,75.78
2019-02-15T02:07:11.633Z,75.88
2019-02-15T02:08:11.627Z,76.19
2019-02-15T02:09:11.690Z,75.67
2019-02-15T02:10:11.629Z,75.98
2019-02-15T02:11:11.611Z,75.98
2019-02-15T02:12:11.610Z,74.91
2019-02-15T02:13:11.561Z,75.12
2019-02-15T02:14:11.669Z,75.43
2019-02-15T02:15:11.590Z,75.98
2019-02-15T02:16:11.562Z,75.02
2019-02-15T02:17:11.536Z,75.23
2019-02-15T02:18:11.524Z,74.22
2019-02-15T02:19:11.695Z,74.63
2019-02-15T02:20:11.576Z,74.71
2019-02-15T02:21:11.521Z,74.22
2019-02-15T02:22:11.484Z,74.40
2019-02-15T02:23:11.499Z,74.50
2019-02-15T02:24:11.522Z,73.88
2019-02-15T02:25:11.515Z,74.08
2019-02-15T02:26:11.440Z,73.77
2019-02-15T02:27:11.448Z,73.57
2019-02-15T02:28:11.417Z,73.57
2019-02-15T02:29:11.445Z,73.57
2019-02-15T02:30:11.427Z,73.67
2019-02-15T02:31:11.396Z,73.67
2019-02-15T02:32:11.507Z,73.46
2019-02-15T02:33:11.369Z,73.25
2019-02-15T02:34:11.369Z,73.05
2019-02-15T02:35:11.380Z,73.15
2019-02-15T02:36:11.327Z,72.74
2019-02-15T02:37:11.354Z,73.05
2019-02-15T02:38:11.325Z,73.05
2019-02-15T02:39:11.299Z,72.74
2019-02-15T02:40:11.411Z,72.84
2019-02-15T02:41:11.350Z,72.94
2019-02-15T02:42:11.255Z,72.94
2019-02-15T02:43:11.263Z,72.84
2019-02-15T02:44:11.256Z,72.84
2019-02-15T02:45:11.274Z,72.94
2019-02-15T02:46:11.274Z,72.28
2019-02-15T02:47:11.211Z,72.32
2019-02-15T02:48:11.193Z,72.53
2019-02-15T02:49:11.204Z,72.32
2019-02-15T02:50:11.221Z,72.84
2019-02-15T02:51:11.226Z,72.84
2019-02-15T02:52:11.194Z,72.94
2019-02-15T02:53:11.196Z,72.84
2019-02-15T02:54:11.131Z,72.94
2019-02-15T02:55:11.150Z,72.84
2019-02-15T02:56:11.142Z,72.94
2019-02-15T02:57:11.119Z,72.94
2019-02-15T02:58:11.111Z,72.94
2019-02-15T02:59:11.104Z,72.84
2019-02-15T03:00:11.073Z,72.74
2019-02-15T03:01:11.125Z,72.94
2019-02-15T03:02:11.059Z,73.15
2019-02-15T03:03:11.091Z,73.67
2019-02-15T03:04:11.034Z,73.57
2019-02-15T03:05:11.020Z,73.60
2019-02-15T03:06:11.022Z,73.49
2019-02-15T03:07:11.005Z,73.39
2019-02-15T03:08:11.115Z,73.28
2019-02-15T03:09:11.959Z,74.11
2019-02-15T03:10:11.012Z,73.67
2019-02-15T03:11:10.999Z,73.70
2019-02-15T03:12:10.982Z,74.22
2019-02-15T03:13:11.000Z,73.57
2019-02-15T03:14:11.946Z,74.43
2019-02-15T03:15:11.086Z,74.01
2019-02-15T03:16:10.945Z,73.91
2019-02-15T03:17:10.931Z,73.88
2019-02-15T03:18:10.930Z,73.88
2019-02-15T03:19:10.908Z,73.91
2019-02-15T03:20:10.978Z,73.80
2019-02-15T03:21:10.916Z,73.60
2019-02-15T03:22:10.876Z,74.53
2019-02-15T03:23:10.883Z,73.80
2019-02-15T03:24:10.853Z,73.60
2019-02-15T03:25:10.823Z,73.39
2019-02-15T03:26:10.917Z,73.70
2019-02-15T03:27:10.788Z,74.01
2019-02-15T03:28:10.776Z,73.91
2019-02-15T03:29:10.767Z,74.01
2019-02-15T03:30:10.772Z,74.22
2019-02-15T03:31:10.771Z,73.91
2019-02-15T03:32:10.753Z,73.88
2019-02-15T03:33:10.853Z,73.60
2019-02-15T03:34:10.771Z,73.49
2019-02-15T03:35:10.755Z,73.49
2019-02-15T03:36:10.777Z,73.49
2019-02-15T03:37:10.714Z,73.91
2019-02-15T03:38:10.730Z,73.80
2019-02-15T03:39:10.839Z,74.01
2019-02-15T03:40:10.649Z,74.01
2019-02-15T03:41:10.666Z,73.91
2019-02-15T03:42:10.622Z,73.49
2019-02-15T03:43:10.623Z,73.70
2019-02-15T03:44:10.607Z,73.49
2019-02-15T03:45:10.589Z,73.91
2019-02-15T03:46:10.624Z,73.80
2019-02-15T03:47:10.573Z,73.60
2019-02-15T03:48:10.555Z,74.01
2019-02-15T03:49:10.574Z,74.22
2019-02-15T03:50:10.541Z,74.26
2019-02-15T03:51:10.720Z,74.05
2019-02-15T03:52:10.532Z,74.46
2019-02-15T03:53:10.512Z,74.46
2019-02-15T03:54:10.500Z,73.74
2019-02-15T03:55:10.489Z,74.32
2019-02-15T03:56:10.499Z,74.77
2019-02-15T03:57:10.517Z,74.57
2019-02-15T03:58:10.469Z,74.57
2019-02-15T03:59:10.442Z,74.77
2019-02-15T04:00:10.498Z,74.15
2019-02-15T04:01:10.445Z,74.05
2019-02-15T04:02:10.967Z,74.67
2019-02-15T04:03:10.404Z,74.15
2019-02-15T04:04:10.408Z,74.36
2019-02-15T04:05:10.376Z,74.67
2019-02-15T04:06:10.408Z,74.46
2019-02-15T04:07:10.383Z,74.36
2019-02-15T04:08:10.403Z,74.46
2019-02-15T04:09:10.365Z,74.46
2019-02-15T04:10:10.352Z,74.57
2019-02-15T04:11:14.880Z,74.29
2019-02-15T04:12:15.112Z,74.67
2019-02-15T04:13:11.559Z,74.77
2019-02-15T04:14:10.325Z,74.46
2019-02-15T04:15:11.192Z,74.60
2019-02-15T04:16:10.336Z,75.09
2019-02-15T04:17:10.270Z,74.46
2019-02-15T04:18:10.300Z,74.49
2019-02-15T04:19:10.254Z,74.70
2019-02-15T04:20:10.287Z,74.39
2019-02-15T04:21:10.258Z,75.01
2019-02-15T04:22:10.300Z,75.01
2019-02-15T04:23:10.184Z,75.32
2019-02-15T04:24:10.226Z,74.91
2019-02-15T04:25:10.182Z,75.32
2019-02-15T04:26:10.191Z,75.32
2019-02-15T04:27:10.200Z,74.80
2019-02-15T04:28:10.210Z,75.32
2019-02-15T04:29:10.137Z,75.67
2019-02-15T04:30:10.124Z,76.09
2019-02-15T04:31:10.140Z,75.85
2019-02-15T04:32:10.138Z,75.85
2019-02-15T04:33:10.102Z,75.74
2019-02-15T04:34:10.074Z,75.88
2019-02-15T04:35:10.068Z,76.16
2019-02-15T04:36:10.074Z,75.32
2019-02-15T04:37:10.070Z,75.85
2019-02-15T04:38:10.035Z,75.85
2019-02-15T04:39:10.052Z,75.98
2019-02-15T04:40:10.132Z,76.09
2019-02-15T04:41:09.997Z,75.95
2019-02-15T04:42:10.002Z,76.40
2019-02-15T04:43:10.025Z,76.29
2019-02-15T04:44:09.974Z,76.61
2019-02-15T04:45:09.950Z,76.72
2019-02-15T04:46:09.939Z,76.51
2019-02-15T04:47:09.954Z,76.92
2019-02-15T04:48:09.935Z,76.95
2019-02-15T04:49:09.948Z,77.23
2019-02-15T04:50:09.892Z,76.95
2019-02-15T04:52:10.984Z,77.03
2019-02-15T04:53:09.854Z,76.92
2019-02-15T04:54:09.837Z,76.82
2019-02-15T04:56:10.992Z,76.51
2019-02-15T04:58:10.967Z,76.19
2019-02-15T04:59:09.857Z,76.29
2019-02-15T05:00:30.872Z,76.61
2019-02-15T05:02:18.939Z,76.92
2019-02-15T05:03:19.633Z,76.95
2019-02-15T05:04:18.905Z,76.85
2019-02-15T05:05:18.872Z,76.95
2019-02-15T05:06:18.884Z,77.06
2019-02-15T05:07:20.042Z,76.95
2019-02-15T05:08:18.858Z,77.16
2019-02-15T05:09:19.714Z,76.85
2019-02-15T05:10:18.827Z,77.16
2019-02-15T05:11:18.842Z,76.95
2019-02-15T05:12:18.860Z,77.06
2019-02-15T05:13:18.844Z,77.16
2019-02-15T05:14:18.788Z,77.16
2019-02-15T05:15:18.781Z,77.58
2019-02-15T05:16:18.784Z,77.58
2019-02-15T05:17:18.757Z,77.58
2019-02-15T05:18:18.787Z,77.58
2019-02-15T05:19:18.749Z,77.48
2019-02-15T05:20:18.716Z,78.10
2019-02-15T05:21:18.714Z,78.00
2019-02-15T05:22:18.702Z,78.00
2019-02-15T05:23:18.735Z,78.00
2019-02-15T05:24:18.730Z,78.03
2019-02-15T05:25:18.664Z,78.03
2019-02-15T05:26:18.672Z,77.93
2019-02-15T05:27:18.671Z,78.03
2019-02-15T05:28:18.676Z,78.14
2019-02-15T05:29:18.643Z,77.83
2019-02-15T05:30:18.646Z,78.14
2019-02-15T05:31:18.600Z,78.00
2019-02-15T05:32:18.643Z,77.89
2019-02-15T05:33:18.632Z,77.89
2019-02-15T05:34:18.610Z,78.00
2019-02-15T05:35:18.570Z,77.69
2019-02-15T05:36:18.610Z,77.48
2019-02-15T05:37:18.554Z,77.27
2019-02-15T05:38:18.553Z,77.16
2019-02-15T05:39:18.552Z,76.85
2019-02-15T05:40:18.662Z,76.85
2019-02-15T05:41:18.520Z,76.95
2019-02-15T05:42:18.488Z,77.48
2019-02-15T05:43:18.478Z,77.06
2019-02-15T05:44:18.496Z,77.06
2019-02-15T05:45:18.484Z,77.27
2019-02-15T05:46:18.444Z,77.16
2019-02-15T05:47:18.445Z,77.48
2019-02-15T05:48:18.422Z,77.20
2019-02-15T05:49:18.428Z,77.83
2019-02-15T05:50:18.476Z,77.37
2019-02-15T05:51:18.454Z,77.37
2019-02-15T05:52:18.385Z,77.20
2019-02-15T05:53:18.395Z,77.48
2019-02-15T05:54:18.390Z,77.37
2019-02-15T05:55:18.458Z,77.16
2019-02-15T05:56:18.361Z,77.61
2019-02-15T05:57:18.351Z,77.40
2019-02-15T05:58:18.316Z,77.30
2019-02-15T05:59:18.325Z,77.30
2019-02-15T06:00:18.288Z,77.51
2019-02-15T06:01:18.289Z,77.83
2019-02-15T06:02:18.292Z,77.61
2019-02-15T06:03:18.284Z,77.72
2019-02-15T06:04:18.266Z,78.14
2019-02-15T06:05:18.270Z,77.93
2019-02-15T06:06:18.232Z,78.03
2019-02-15T06:07:18.233Z,78.45
2019-02-15T06:08:18.238Z,78.14
2019-02-15T06:09:18.228Z,78.14
2019-02-15T06:10:20.537Z,78.55
2019-02-15T06:11:18.192Z,78.34
2019-02-15T06:12:18.172Z,78.24
2019-02-15T06:13:18.183Z,78.76
2019-02-15T06:14:18.192Z,78.24
2019-02-15T06:15:18.135Z,78.45
2019-02-15T06:16:18.144Z,78.28
2019-02-15T06:17:18.158Z,78.24
2019-02-15T06:18:18.118Z,77.93
2019-02-15T06:19:18.097Z,78.14
2019-02-15T06:20:18.731Z,78.03
2019-02-15T06:21:18.076Z,78.34
2019-02-15T06:22:18.848Z,77.83
2019-02-15T06:23:18.042Z,77.83
2019-02-15T06:24:18.060Z,77.72
2019-02-15T06:25:18.759Z,77.61
2019-02-15T06:27:19.270Z,77.51
2019-02-15T06:28:17.987Z,77.61
2019-02-15T06:29:17.969Z,77.61
2019-02-15T06:31:19.114Z,77.61
2019-02-15T06:32:17.949Z,77.40
2019-02-15T06:33:18.022Z,77.72
2019-02-15T06:34:17.925Z,77.61
2019-02-15T06:35:17.938Z,77.83
2019-02-15T06:36:17.911Z,78.03
2019-02-15T06:37:17.908Z,77.83
2019-02-15T06:38:17.891Z,78.07
2019-02-15T06:39:17.869Z,77.75
2019-02-15T06:40:17.910Z,77.86
2019-02-15T06:41:17.854Z,77.93
2019-02-15T06:42:17.855Z,78.07
2019-02-15T06:43:17.851Z,78.28
2019-02-15T06:44:17.823Z,78.28
2019-02-15T06:45:24.325Z,77.96
2019-02-15T06:46:18.802Z,78.07
2019-02-15T06:47:17.785Z,77.93
2019-02-15T06:48:17.907Z,78.14
2019-02-15T06:49:17.780Z,78.03
2019-02-15T06:50:17.777Z,78.03
2019-02-15T06:51:17.773Z,78.03
2019-02-15T06:52:17.734Z,77.72
2019-02-15T06:53:17.742Z,77.83
2019-02-15T06:54:20.284Z,77.93
2019-02-15T06:55:17.726Z,77.93
2019-02-15T06:56:17.691Z,77.93
2019-02-15T06:57:17.685Z,78.34
2019-02-15T06:58:17.696Z,77.93
2019-02-15T06:59:17.652Z,78.03
2019-02-15T07:00:17.740Z,77.93
2019-02-15T07:01:17.645Z,77.93
2019-02-15T07:02:17.658Z,77.93
2019-02-15T07:03:17.629Z,77.93
2019-02-15T07:04:17.637Z,78.24
2019-02-15T07:05:17.619Z,77.83
2019-02-15T07:06:17.584Z,77.89
2019-02-15T07:07:17.583Z,77.51
2019-02-15T07:08:17.555Z,77.51
2019-02-15T07:09:17.556Z,77.58
2019-02-15T07:10:17.585Z,77.51
2019-02-15T07:11:20.292Z,77.40
2019-02-15T07:12:17.543Z,77.61
2019-02-15T07:13:17.518Z,77.51
2019-02-15T07:14:17.500Z,77.58
2019-02-15T07:15:17.512Z,77.20
2019-02-15T07:16:17.502Z,77.61
2019-02-15T07:17:17.472Z,77.40
2019-02-15T07:18:17.520Z,77.30
2019-02-15T07:19:17.444Z,77.30
2019-02-15T07:20:17.496Z,77.30
2019-02-15T07:21:17.491Z,77.51
2019-02-15T07:22:17.459Z,77.20
2019-02-15T07:23:17.434Z,77.40
2019-02-15T07:24:17.463Z,77.40
2019-02-15T07:25:17.403Z,77.40
2019-02-15T07:26:17.430Z,77.48
2019-02-15T07:27:17.423Z,77.40
2019-02-15T07:28:17.357Z,77.09
2019-02-15T07:29:17.464Z,77.16
2019-02-15T07:30:17.486Z,77.16
2019-02-15T07:31:17.411Z,77.06
2019-02-15T07:32:17.306Z,76.85
2019-02-15T07:33:17.292Z,76.64
2019-02-15T07:34:17.295Z,76.95
2019-02-15T07:35:17.277Z,76.64
2019-02-15T07:36:17.299Z,76.51
2019-02-15T07:37:17.284Z,76.72
2019-02-15T07:38:17.234Z,76.75
2019-02-15T07:39:17.246Z,76.61
2019-02-15T07:40:17.230Z,76.19
2019-02-15T07:41:17.396Z,76.51
2019-02-15T07:42:17.197Z,76.72
2019-02-15T07:43:17.205Z,75.95
2019-02-15T07:44:17.192Z,76.19
2019-02-15T07:45:17.829Z,76.47
2019-02-15T07:46:17.192Z,75.74
2019-02-15T07:47:17.159Z,76.26
2019-02-15T07:48:17.177Z,75.54
2019-02-15T07:49:26.421Z,75.43
2019-02-15T07:50:18.146Z,75.95
2019-02-15T07:51:17.150Z,75.22
2019-02-15T07:52:17.110Z,75.60
2019-02-15T07:53:17.091Z,75.64
2019-02-15T07:54:17.079Z,75.29
2019-02-15T07:55:17.064Z,75.71
2019-02-15T07:56:17.087Z,75.19
2019-02-15T07:57:17.147Z,75.29
2019-02-15T07:58:17.060Z,75.29
2019-02-15T07:59:17.073Z,75.26
2019-02-15T08:00:17.010Z,75.19
2019-02-15T08:01:17.043Z,74.74
2019-02-15T08:02:17.017Z,74.53
2019-02-15T08:03:16.981Z,74.01
2019-02-15T08:04:16.964Z,74.22
2019-02-15T08:05:16.946Z,73.91
2019-02-15T08:06:17.003Z,73.77
2019-02-15T08:07:16.931Z,74.08
2019-02-15T08:08:16.919Z,74.11
2019-02-15T08:09:16.920Z,74.71
2019-02-15T08:10:16.907Z,74.50
2019-02-15T08:11:16.892Z,73.67
2019-02-15T08:12:16.997Z,73.67
2019-02-15T08:13:16.874Z,73.57
2019-02-15T08:14:17.682Z,73.11
2019-02-15T08:15:16.853Z,72.80
2019-02-15T08:16:16.883Z,73.01
2019-02-15T08:17:16.879Z,73.11
2019-02-15T08:18:16.828Z,72.80
2019-02-15T08:19:16.845Z,72.88
2019-02-15T08:20:16.809Z,72.67
2019-02-15T08:21:16.799Z,72.80
2019-02-15T08:22:16.805Z,72.91
2019-02-15T08:23:16.821Z,72.98
2019-02-15T08:24:16.762Z,72.91
2019-02-15T08:25:16.759Z,72.91
2019-02-15T08:26:16.731Z,72.77
2019-02-15T08:27:16.757Z,72.77
2019-02-15T08:28:16.735Z,72.67
2019-02-15T08:29:16.714Z,72.46
2019-02-15T08:30:16.699Z,72.05
2019-02-15T08:31:16.690Z,72.11
2019-02-15T08:32:16.673Z,72.22
2019-02-15T08:33:16.784Z,71.49
2019-02-15T08:34:16.638Z,71.70
2019-02-15T08:35:16.687Z,70.73
2019-02-15T08:36:16.621Z,70.73
2019-02-15T08:37:16.666Z,70.53
2019-02-15T08:38:16.617Z,70.53
2019-02-15T08:39:16.677Z,69.87
2019-02-15T08:40:16.581Z,69.15
2019-02-15T08:41:16.563Z,68.94
2019-02-15T08:42:16.561Z,69.22
2019-02-15T08:43:16.604Z,68.08
2019-02-15T08:44:16.558Z,68.19
2019-02-15T08:45:16.549Z,67.88
2019-02-15T08:46:16.515Z,67.43
2019-02-15T08:47:16.515Z,67.33
2019-02-15T08:48:16.509Z,67.33
2019-02-15T08:49:16.529Z,66.81
2019-02-15T08:50:16.486Z,66.99
2019-02-15T08:51:16.453Z,66.47
2019-02-15T08:52:16.489Z,66.47
2019-02-15T08:53:16.462Z,66.88
2019-02-15T08:54:16.566Z,66.78
2019-02-15T08:55:16.445Z,66.13
2019-02-15T08:56:16.437Z,66.75
2019-02-15T08:57:16.459Z,66.23
2019-02-15T08:58:16.448Z,65.69
2019-02-15T08:59:16.426Z,65.61
2019-02-15T09:00:16.371Z,65.51
2019-02-15T09:01:16.364Z,64.86
2019-02-15T09:02:16.341Z,64.65
2019-02-15T09:03:16.362Z,64.24
2019-02-15T09:04:16.381Z,64.42
2019-02-15T09:05:16.334Z,64.34
2019-02-15T09:06:16.305Z,64.00
2019-02-15T09:07:16.318Z,63.69
2019-02-15T09:08:16.314Z,63.79
2019-02-15T09:09:16.265Z,63.59
2019-02-15T09:10:16.253Z,63.49
2019-02-15T09:11:16.259Z,63.67
2019-02-15T09:12:16.262Z,63.87
2019-02-15T09:13:16.256Z,63.35
2019-02-15T09:14:16.208Z,63.25
2019-02-15T09:15:16.201Z,63.35
2019-02-15T09:16:16.183Z,62.43
2019-02-15T09:17:16.179Z,63.15
2019-02-15T09:18:16.194Z,63.25
2019-02-15T09:19:16.181Z,62.32
2019-02-15T09:20:16.147Z,62.22
2019-02-15T09:21:16.165Z,61.60
2019-02-15T09:22:16.142Z,61.98
2019-02-15T09:23:16.152Z,61.68
2019-02-15T09:24:16.119Z,61.98
2019-02-15T09:25:16.133Z,61.78
2019-02-15T09:26:18.215Z,61.85
2019-02-15T09:27:16.069Z,61.75
2019-02-15T09:28:16.200Z,60.93
2019-02-15T09:29:16.062Z,61.33
2019-02-15T09:30:16.069Z,60.44
2019-02-15T09:31:16.029Z,60.31
2019-02-15T09:32:16.022Z,59.69
2019-02-15T09:33:16.071Z,59.86
2019-02-15T09:34:16.017Z,59.97
2019-02-15T09:35:15.995Z,59.35
2019-02-15T09:36:15.989Z,59.45
2019-02-15T09:37:15.961Z,59.77
2019-02-15T09:38:15.965Z,59.97
2019-02-15T09:39:15.952Z,59.77
2019-02-15T09:40:15.923Z,59.66
2019-02-15T09:41:15.941Z,59.14
2019-02-15T09:42:15.931Z,59.33
2019-02-15T09:43:15.895Z,58.63
2019-02-15T09:44:15.942Z,58.70
2019-02-15T09:45:15.881Z,58.91
2019-02-15T09:46:19.875Z,58.60
2019-02-15T09:47:15.855Z,59.12
2019-02-15T09:48:15.862Z,58.26
2019-02-15T09:49:15.873Z,58.26
2019-02-15T09:50:15.823Z,57.75
2019-02-15T09:51:15.818Z,57.65
2019-02-15T09:52:15.807Z,58.16
2019-02-15T09:53:15.795Z,58.14
2019-02-15T09:54:15.823Z,57.42
2019-02-15T09:55:15.790Z,57.21
2019-02-15T09:56:15.750Z,57.10
2019-02-15T09:57:15.755Z,56.90
2019-02-15T09:58:16.544Z,56.70
2019-02-15T09:59:15.758Z,56.38
2019-02-15T10:00:15.711Z,56.87
2019-02-15T10:01:15.703Z,56.87
2019-02-15T10:02:15.701Z,56.67
2019-02-15T10:03:15.707Z,56.15
2019-02-15T10:04:15.693Z,56.26
2019-02-15T10:05:15.656Z,56.05
2019-02-15T10:06:15.645Z,56.02
2019-02-15T10:07:15.630Z,56.57
2019-02-15T10:08:15.651Z,55.93
2019-02-15T10:09:15.628Z,55.93
2019-02-15T10:10:15.610Z,56.44
2019-02-15T10:11:15.589Z,55.72
2019-02-15T10:12:15.582Z,55.82
2019-02-15T10:13:15.573Z,55.93
2019-02-15T10:14:15.577Z,55.72
2019-02-15T10:15:15.568Z,55.49
2019-02-15T10:16:15.541Z,55.30
2019-02-15T10:17:15.528Z,55.28
2019-02-15T10:18:15.515Z,55.21
2019-02-15T10:19:22.196Z,55.49
2019-02-15T10:20:16.513Z,56.10
2019-02-15T10:21:15.496Z,55.93
2019-02-15T10:22:15.466Z,55.49
2019-02-15T10:23:15.466Z,55.38
2019-02-15T10:24:15.478Z,54.97
2019-02-15T10:25:15.438Z,55.26
2019-02-15T10:26:15.443Z,54.85
2019-02-15T10:27:15.428Z,55.26
2019-02-15T10:28:15.411Z,55.15
2019-02-15T10:29:15.411Z,54.13
2019-02-15T10:30:15.389Z,54.74
2019-02-15T10:31:15.373Z,54.33
2019-02-15T10:32:15.371Z,53.59
2019-02-15T10:33:15.389Z,52.97
2019-02-15T10:34:15.384Z,53.08
2019-02-15T10:35:15.343Z,54.00
2019-02-15T10:36:15.326Z,53.59
2019-02-15T10:37:15.313Z,52.97
2019-02-15T10:38:15.318Z,52.87
2019-02-15T10:39:15.374Z,53.69
2019-02-15T10:40:15.267Z,53.46
2019-02-15T10:41:15.259Z,53.25
2019-02-15T10:42:15.266Z,53.56
2019-02-15T10:43:15.248Z,52.82
2019-02-15T10:44:15.257Z,52.54
2019-02-15T10:45:15.260Z,52.54
2019-02-15T10:46:15.215Z,52.54
2019-02-15T10:47:24.415Z,52.51
2019-02-15T10:48:16.206Z,52.95
2019-02-15T10:49:15.189Z,52.82
2019-02-15T10:50:15.302Z,52.00
2019-02-15T10:51:15.151Z,52.00
2019-02-15T10:52:15.163Z,51.90
2019-02-15T10:53:15.174Z,52.10
2019-02-15T10:54:15.174Z,51.79
2019-02-15T10:55:15.149Z,52.51
2019-02-15T10:56:15.123Z,51.79
2019-02-15T10:57:15.259Z,50.97
2019-02-15T10:58:15.087Z,50.56
2019-02-15T10:59:15.088Z,50.64
2019-02-15T11:00:15.088Z,50.13
2019-02-15T11:01:15.070Z,49.93
2019-02-15T11:02:15.055Z,50.02
2019-02-15T11:03:15.030Z,50.10
2019-02-15T11:04:15.017Z,50.02
2019-02-15T11:05:15.024Z,50.34
2019-02-15T11:06:14.998Z,50.01
2019-02-15T11:07:15.007Z,50.52
2019-02-15T11:08:14.973Z,48.80
2019-02-15T11:09:14.965Z,47.77
2019-02-15T11:10:14.964Z,47.13
2019-02-15T11:11:14.940Z,47.44
2019-02-15T11:12:14.942Z,45.78
2019-02-15T11:13:14.935Z,46.19
2019-02-15T11:14:14.906Z,45.98
2019-02-15T11:15:14.933Z,46.17
2019-02-15T11:16:14.898Z,45.97
2019-02-15T11:17:14.882Z,45.76
2019-02-15T11:18:14.878Z,44.84
2019-02-15T11:19:14.863Z,44.92
2019-02-15T11:20:14.902Z,44.00
2019-02-15T11:21:14.823Z,45.02
2019-02-15T11:22:14.818Z,45.02
2019-02-15T11:23:14.814Z,44.82
2019-02-15T11:24:14.830Z,44.49
2019-02-15T11:25:14.817Z,44.20
2019-02-15T11:26:14.777Z,44.18
2019-02-15T11:27:14.801Z,44.38
2019-02-15T11:28:14.758Z,44.18
2019-02-15T11:29:14.784Z,42.81
2019-02-15T11:30:14.781Z,42.04
2019-02-15T11:31:16.491Z,40.45
2019-02-15T11:32:14.708Z,38.54
2019-02-15T11:33:14.712Z,37.07
2019-02-15T11:34:14.688Z,36.49
2019-02-15T11:35:14.703Z,35.75
2019-02-15T11:36:14.670Z,34.82
2019-02-15T11:37:14.652Z,34.67
2019-02-15T11:38:14.660Z,34.35
2019-02-15T11:39:14.644Z,33.21
2019-02-15T11:40:14.658Z,31.27
2019-02-15T11:41:14.629Z,31.39
2019-02-15T11:42:14.597Z,31.46
2019-02-15T11:43:15.153Z,30.43
2019-02-15T11:44:14.587Z,30.50
2019-02-15T11:45:14.641Z,28.69
2019-02-15T11:46:14.585Z,29.52
2019-02-15T11:47:14.544Z,30.44
2019-02-15T11:48:14.536Z,29.52
2019-02-15T11:49:14.524Z,29.81
2019-02-15T11:50:14.539Z,30.19
2019-02-15T11:51:14.508Z,28.96
2019-02-15T11:52:14.510Z,27.94
2019-02-15T11:53:14.485Z,28.03
2019-02-15T11:54:23.110Z,26.82
2019-02-15T11:55:15.488Z,26.53
2019-02-15T11:56:14.452Z,27.34
2019-02-15T11:57:14.442Z,27.35
2019-02-15T11:58:14.440Z,27.05
2019-02-15T11:59:14.454Z,27.33
2019-02-15T12:00:14.896Z,27.54
2019-02-15T12:01:14.433Z,27.14
2019-02-15T12:02:14.382Z,27.42
2019-02-15T12:03:14.374Z,27.34
2019-02-15T12:04:14.379Z,27.34
2019-02-15T12:05:14.355Z,26.72
2019-02-15T12:06:14.356Z,26.09
2019-02-15T12:07:14.343Z,26.68
2019-02-15T12:08:14.326Z,26.28
2019-02-15T12:09:14.339Z,26.17
2019-02-15T12:10:14.369Z,25.96
2019-02-15T12:11:14.355Z,25.96
2019-02-15T12:12:14.294Z,25.72
2019-02-15T12:13:14.266Z,25.11
2019-02-15T12:14:14.267Z,24.48
2019-02-15T12:15:14.256Z,24.58
2019-02-15T12:16:14.268Z,23.87
2019-02-15T12:17:14.217Z,24.06
2019-02-15T12:18:14.208Z,24.06
2019-02-15T12:19:14.206Z,24.05
2019-02-15T12:20:14.203Z,23.54
2019-02-15T12:21:14.200Z,23.44
2019-02-15T12:22:14.194Z,23.13
2019-02-15T12:23:14.175Z,22.73
2019-02-15T12:24:14.150Z,23.12
2019-02-15T12:25:14.138Z,23.12
2019-02-15T12:26:14.160Z,22.32
2019-02-15T12:27:14.126Z,21.84
2019-02-15T12:28:14.112Z,22.64
2019-02-15T12:29:14.112Z,22.33
2019-02-15T12:30:14.108Z,22.73
2019-02-15T12:31:14.110Z,22.93
2019-02-15T12:32:14.074Z,23.13
2019-02-15T12:33:14.052Z,22.23
2019-02-15T12:34:14.062Z,21.73
2019-02-15T12:35:14.030Z,22.62
2019-02-15T12:36:14.036Z,22.00
2019-02-15T12:37:14.011Z,21.70
2019-02-15T12:38:14.008Z,21.11
2019-02-15T12:39:14.438Z,21.22
2019-02-15T12:40:13.970Z,22.01
2019-02-15T12:41:14.028Z,21.33
2019-02-15T12:42:13.964Z,22.72
2019-02-15T12:43:13.952Z,21.61
2019-02-15T12:44:13.977Z,21.61
2019-02-15T12:45:13.922Z,21.50
2019-02-15T12:46:13.924Z,21.30
2019-02-15T12:47:15.340Z,22.19
2019-02-15T12:48:13.891Z,21.89
2019-02-15T12:49:13.882Z,22.19
2019-02-15T12:50:13.865Z,21.79
2019-02-15T12:51:13.874Z,22.00
2019-02-15T12:52:13.854Z,22.11
2019-02-15T12:53:13.854Z,22.01
2019-02-15T12:54:13.828Z,22.02
2019-02-15T12:55:13.825Z,22.63
2019-02-15T12:56:13.827Z,22.44
2019-02-15T12:57:13.791Z,22.34
2019-02-15T12:58:13.776Z,22.65